Time;durP1;ratioP1;P1;durP2;ratioP2;P2;SDS_P1;SDS_P2;PMS_P1;PMS_P2;Temp;Humidity;BMP_temperature;BMP_pressure;BME280_temperature;BME280_humidity;BME280_pressure;Samples;Min_cycle;Max_cycle;Signal;HPM_P1;HPM_P2
2021/06/23 00:02:21;0.00;0.00;0.62;0.00;0.00;0.62;;;;;22.80;1.60;;;;;;2571333;56;1898;-86
2021/06/23 00:04:48;47135.00;0.16;82.23;0.00;0.00;0.62;;;;;22.70;1.90;;;;;;2573465;55;1506;-85
2021/06/23 00:07:15;41243.00;0.14;72.04;0.00;0.00;0.62;;;;;22.60;1.70;;;;;;2573632;55;973;-85
2021/06/23 00:09:42;91884.00;0.31;159.56;21783.00;0.07;38.36;;;;;22.20;3.00;;;;;;2571380;56;1147;-86
2021/06/23 00:12:15;113669.00;0.38;197.16;47267.00;0.16;82.46;;;;;22.20;3.20;;;;;;2571446;56;1102;-86
2021/06/23 00:14:44;18147.00;0.06;32.06;0.00;0.00;0.62;;;;;22.00;3.80;;;;;;2571347;56;1412;-85
2021/06/23 00:17:11;174643.00;0.58;302.26;35841.00;0.12;62.69;;;;;22.00;3.90;;;;;;2571367;56;1046;-85
2021/06/23 00:19:38;0.00;0.00;0.62;0.00;0.00;0.62;;;;;22.00;4.70;;;;;;2571395;56;1078;-86
2021/06/23 00:22:05;182665.00;0.61;316.08;27246.00;0.09;47.82;;;;;22.00;5.40;;;;;;2571433;56;1939;-86
2021/06/23 00:24:32;77694.00;0.26;135.05;0.00;0.00;0.62;;;;;21.90;5.40;;;;;;2564625;55;1428;-86
2021/06/23 00:26:59;11613.00;0.04;20.74;0.00;0.00;0.62;;;;;21.70;6.40;;;;;;2571642;56;1082;-86
2021/06/23 00:29:26;42879.00;0.14;74.87;0.00;0.00;0.62;;;;;22.00;4.80;;;;;;2571572;56;1074;-86
2021/06/23 00:31:54;0.00;0.00;0.62;0.00;0.00;0.62;;;;;22.20;5.20;;;;;;2571262;56;983;-86
2021/06/23 00:34:23;19064.00;0.06;33.65;0.00;0.00;0.62;;;;;22.60;3.90;;;;;;2571545;56;1380;-86
2021/06/23 00:36:50;0.00;0.00;0.62;0.00;0.00;0.62;;;;;22.80;3.60;;;;;;2571467;56;1074;-86
2021/06/23 00:39:17;0.00;0.00;0.62;0.00;0.00;0.62;;;;;22.60;3.10;;;;;;2571599;56;1117;-86
2021/06/23 00:41:44;33685.00;0.11;58.96;0.00;0.00;0.62;;;;;22.70;3.10;;;;;;2571617;56;1941;-86
2021/06/23 00:44:13;36981.00;0.12;64.66;0.00;0.00;0.62;;;;;22.80;3.80;;;;;;2571562;56;1371;-86
2021/06/23 00:46:41;0.00;0.00;0.62;0.00;0.00;0.62;;;;;22.60;3.40;;;;;;2571573;56;1073;-86
2021/06/23 00:49:11;335116.00;1.12;578.28;95611.00;0.32;166.00;;;;;22.60;3.10;;;;;;2571585;56;1054;-86
2021/06/23 00:51:38;0.00;0.00;0.62;0.00;0.00;0.62;;;;;22.80;2.50;;;;;;2571674;56;1079;-86
2021/06/23 00:54:11;0.00;0.00;0.62;0.00;0.00;0.62;;;;;22.80;2.40;;;;;;2571543;56;1378;-87
2021/06/23 00:56:39;0.00;0.00;0.62;0.00;0.00;0.62;;;;;23.00;1.50;;;;;;2571529;56;1101;-86
2021/06/23 00:59:07;35193.00;0.12;61.57;0.00;0.00;0.62;;;;;23.10;1.20;;;;;;2571587;56;1134;-85
2021/06/23 01:01:38;164302.00;0.55;284.45;3691.00;0.01;7.02;;;;;23.00;1.20;;;;;;2571052;56;1953;-86
2021/06/23 01:04:06;203841.00;0.68;352.54;44296.00;0.15;77.32;;;;;22.90;1.40;;;;;;2571598;56;1437;-85
2021/06/23 01:06:35;0.00;0.00;0.62;0.00;0.00;0.62;;;;;23.00;1.00;;;;;;2571554;56;1152;-86
2021/06/23 01:09:04;0.00;0.00;0.62;0.00;0.00;0.62;;;;;23.10;1.00;;;;;;2571521;56;1141;-86
2021/06/23 01:11:31;0.00;0.00;0.62;0.00;0.00;0.62;;;;;23.30;1.00;;;;;;2573763;55;1020;-86
2021/06/23 01:14:03;0.00;0.00;0.62;0.00;0.00;0.62;;;;;23.30;1.00;;;;;;2571560;56;1268;-85
2021/06/23 01:16:32;0.00;0.00;0.62;0.00;0.00;0.62;;;;;23.20;1.20;;;;;;2571194;56;1099;-86
2021/06/23 01:19:00;0.00;0.00;0.62;0.00;0.00;0.62;;;;;23.20;1.00;;;;;;2571558;56;1061;-86
2021/06/23 01:21:29;0.00;0.00;0.62;0.00;0.00;0.62;;;;;23.40;1.00;;;;;;2570875;56;1092;-86
2021/06/23 01:23:57;51259.00;0.17;89.36;0.00;0.00;0.62;;;;;23.50;1.00;;;;;;2570889;56;1961;-87
2021/06/23 01:26:24;0.00;0.00;0.62;0.00;0.00;0.62;;;;;23.60;1.00;;;;;;2571513;56;1056;-86
2021/06/23 01:28:51;0.00;0.00;0.62;0.00;0.00;0.62;;;;;23.70;1.00;;;;;;2571511;56;1111;-85
2021/06/23 01:31:20;0.00;0.00;0.62;0.00;0.00;0.62;;;;;23.70;1.00;;;;;;2571560;56;1089;-85
2021/06/23 01:33:48;0.00;0.00;0.62;0.00;0.00;0.62;;;;;23.50;1.00;;;;;;2573756;55;965;-85
2021/06/23 01:36:15;64008.00;0.21;111.40;0.00;0.00;0.62;;;;;23.50;1.00;;;;;;2571410;56;1202;-85
2021/06/23 01:38:42;0.00;0.00;0.62;0.00;0.00;0.62;;;;;23.50;1.00;;;;;;2571497;56;1085;-85
2021/06/23 01:41:10;0.00;0.00;0.62;0.00;0.00;0.62;;;;;23.20;1.20;;;;;;2571568;56;1113;-85
2021/06/23 01:43:37;62137.00;0.21;108.17;0.00;0.00;0.62;;;;;23.10;1.00;;;;;;2571490;56;1956;-86
2021/06/23 01:46:04;203884.00;0.68;352.61;24236.00;0.08;42.60;;;;;22.90;1.00;;;;;;2571486;56;1343;-85
2021/06/23 01:48:31;0.00;0.00;0.62;0.00;0.00;0.62;;;;;23.00;1.00;;;;;;2571273;56;944;-85
2021/06/23 01:51:00;228304.00;0.76;394.63;0.00;0.00;0.62;;;;;23.10;1.00;;;;;;2571495;56;1169;-85
2021/06/23 01:53:29;0.00;0.00;0.62;0.00;0.00;0.62;;;;;23.30;1.00;;;;;;2571535;56;1157;-85
2021/06/23 01:55:56;0.00;0.00;0.62;0.00;0.00;0.62;;;;;23.40;1.00;;;;;;2571510;56;1369;-85
2021/06/23 01:58:24;98321.00;0.33;170.67;32206.00;0.11;56.40;;;;;23.40;1.00;;;;;;2571518;56;1035;-85
2021/06/23 02:00:59;1081.00;0.00;2.49;0.00;0.00;0.62;;;;;23.40;1.00;;;;;;2571514;56;1042;-85
2021/06/23 02:04:01;133049.00;0.44;230.59;0.00;0.00;0.62;;;;;23.50;1.00;;;;;;2571502;56;1890;-84
2021/06/23 02:07:01;203807.00;0.68;352.48;70102.00;0.23;121.94;;;;;23.20;1.00;;;;;;2570647;56;1067;-85
2021/06/23 02:09:55;190144.00;0.63;328.96;0.00;0.00;0.62;;;;;23.30;1.00;;;;;;2571593;56;1118;-85
2021/06/23 02:12:38;7737.00;0.03;14.03;0.00;0.00;0.62;;;;;23.00;1.00;;;;;;2571516;56;1142;-85
2021/06/23 02:15:07;0.00;0.00;0.62;0.00;0.00;0.62;;;;;23.10;1.00;;;;;;2571394;56;1311;-85
2021/06/23 02:17:34;324341.00;1.08;559.76;67165.00;0.22;116.86;;;;;22.90;1.00;;;;;;2571453;56;1030;-85
2021/06/23 02:20:03;185795.00;0.62;321.47;64729.00;0.22;112.65;;;;;22.80;1.00;;;;;;2571534;56;1106;-85
2021/06/23 02:22:33;338207.00;1.13;583.59;74452.00;0.25;129.45;;;;;22.60;1.00;;;;;;2571482;56;1950;-85
2021/06/23 02:25:06;224223.00;0.75;387.61;66358.00;0.22;115.47;;;;;22.40;1.00;;;;;;2564660;56;1422;-85
2021/06/23 02:27:34;271179.00;0.90;468.37;71042.00;0.24;123.56;;;;;22.40;1.40;;;;;;2571206;56;1022;-85
2021/06/23 02:30:01;263885.00;0.88;455.83;67392.00;0.22;117.25;;;;;22.50;1.00;;;;;;2571447;56;1141;-86
2021/06/23 02:32:34;300688.00;1.00;519.10;75535.00;0.25;131.32;;;;;22.40;1.00;;;;;;2571391;56;1133;-86
2021/06/23 02:35:05;173924.00;0.58;301.03;70930.00;0.24;123.37;;;;;22.50;1.00;;;;;;2571497;56;1348;-85
2021/06/23 02:37:33;36528.00;0.12;63.88;0.00;0.00;0.62;;;;;22.50;1.00;;;;;;2571445;56;1058;-84
2021/06/23 02:40:01;10523.00;0.04;18.86;0.00;0.00;0.62;;;;;22.30;1.00;;;;;;2571542;56;1093;-87
2021/06/23 02:42:28;13900.00;0.05;24.71;0.00;0.00;0.62;;;;;22.40;1.00;;;;;;2571490;56;1948;-85
2021/06/23 02:44:55;148048.00;0.49;256.44;0.00;0.00;0.62;;;;;22.70;1.00;;;;;;2571475;56;1291;-86
2021/06/23 02:47:22;77263.00;0.26;134.31;0.00;0.00;0.62;;;;;22.70;1.00;;;;;;2571453;56;1134;-86
2021/06/23 02:49:51;376870.00;1.26;650.05;70020.00;0.23;121.79;;;;;22.90;1.00;;;;;;2571501;56;1113;-86
2021/06/23 02:52:19;233536.00;0.78;403.63;83023.00;0.28;144.26;;;;;22.90;1.00;;;;;;2571059;56;1154;-86
2021/06/23 02:54:47;135576.00;0.45;234.94;0.00;0.00;0.62;;;;;23.00;1.00;;;;;;2571431;56;1340;-87
2021/06/23 02:57:13;62402.00;0.21;108.63;0.00;0.00;0.62;;;;;22.90;1.00;;;;;;2571464;56;1050;-85
2021/06/23 02:59:42;198034.00;0.66;342.54;69414.00;0.23;120.75;;;;;22.70;1.00;;;;;;2571465;56;1054;-86
2021/06/23 03:02:09;314050.00;1.05;542.07;83566.00;0.28;145.20;;;;;22.90;1.00;;;;;;2571439;56;1961;-85
2021/06/23 03:04:36;256735.00;0.86;443.53;70144.00;0.23;122.01;;;;;22.80;1.00;;;;;;2573673;55;1361;-85
2021/06/23 03:07:08;277214.00;0.92;478.75;73257.00;0.24;127.39;;;;;22.80;1.00;;;;;;2571351;56;1105;-86
2021/06/23 03:09:35;187270.00;0.62;324.01;0.00;0.00;0.62;;;;;22.80;1.00;;;;;;2571455;56;1103;-85
2021/06/23 03:12:02;33926.00;0.11;59.38;0.00;0.00;0.62;;;;;22.60;1.00;;;;;;2571516;56;1175;-85
2021/06/23 03:14:30;283923.00;0.95;490.28;70807.00;0.24;123.15;;;;;22.70;1.00;;;;;;2571425;56;1270;-84
2021/06/23 03:16:58;383782.00;1.28;661.93;69582.00;0.23;121.04;;;;;22.70;1.00;;;;;;2571405;56;1127;-84
2021/06/23 03:19:25;224706.00;0.75;388.44;70363.00;0.23;122.39;;;;;23.00;1.00;;;;;;2571438;56;1004;-84
2021/06/23 03:21:52;199367.00;0.66;344.83;70992.00;0.24;123.47;;;;;22.90;1.00;;;;;;2571434;56;1126;-86
2021/06/23 03:24:20;273306.00;0.91;472.03;72399.00;0.24;125.91;;;;;22.50;1.00;;;;;;2571458;56;1952;-87
2021/06/23 03:26:47;415547.00;1.39;716.53;102433.00;0.34;177.77;;;;;22.30;1.00;;;;;;2571464;56;1133;-86
2021/06/23 03:29:27;341235.00;1.14;588.80;67056.00;0.22;116.67;;;;;22.30;1.00;;;;;;2571293;56;1126;-87
2021/06/23 03:31:54;247435.00;0.82;427.54;0.00;0.00;0.62;;;;;22.20;1.00;;;;;;2571220;56;1047;-86
2021/06/23 03:34:21;25493.00;0.08;44.78;0.00;0.00;0.62;;;;;22.10;1.00;;;;;;2571316;56;1288;-87
2021/06/23 03:36:48;18553.00;0.06;32.76;0.00;0.00;0.62;;;;;21.80;1.00;;;;;;2571294;56;1090;-86
2021/06/23 03:39:15;100551.00;0.34;174.52;0.00;0.00;0.62;;;;;21.80;1.00;;;;;;2571340;56;1132;-86
2021/06/23 03:41:43;29873.00;0.10;52.36;0.00;0.00;0.62;;;;;21.90;1.00;;;;;;2571361;56;1050;-87
2021/06/23 03:44:10;158074.00;0.53;273.72;0.00;0.00;0.62;;;;;21.90;1.00;;;;;;2571289;56;1913;-87
2021/06/23 03:46:37;245829.00;0.82;424.78;0.00;0.00;0.62;;;;;21.70;1.00;;;;;;2571352;56;1037;-87
2021/06/23 03:49:05;190362.00;0.63;329.33;0.00;0.00;0.62;;;;;21.60;1.00;;;;;;2571274;56;1121;-86
2021/06/23 03:51:32;39392.00;0.13;68.84;0.00;0.00;0.62;;;;;21.50;1.00;;;;;;2571318;56;1100;-87
2021/06/23 03:53:59;145025.00;0.48;251.23;0.00;0.00;0.62;;;;;21.50;1.00;;;;;;2571253;56;1425;-87
2021/06/23 03:56:26;100223.00;0.33;173.96;0.00;0.00;0.62;;;;;21.60;1.40;;;;;;2571148;56;1157;-87
2021/06/23 03:58:54;109034.00;0.36;189.16;0.00;0.00;0.62;;;;;22.00;1.00;;;;;;2570264;56;1152;-87
2021/06/23 04:01:22;105295.00;0.35;182.71;0.00;0.00;0.62;;;;;22.10;1.00;;;;;;2564306;56;1165;-87
2021/06/23 04:03:48;143542.00;0.48;248.68;0.00;0.00;0.62;;;;;22.20;1.00;;;;;;2572696;56;1961;-88
2021/06/23 04:06:16;500802.00;1.67;863.20;152822.00;0.51;264.67;;;;;22.10;1.00;;;;;;2570769;56;1227;-88
2021/06/23 04:08:42;172852.00;0.58;299.18;0.00;0.00;0.62;;;;;22.20;1.00;;;;;;2572865;56;1188;-88
2021/06/23 04:11:09;184599.00;0.62;319.41;0.00;0.00;0.62;;;;;22.40;1.00;;;;;;2570723;56;1093;-88
2021/06/23 04:13:36;136797.00;0.46;237.05;0.00;0.00;0.62;;;;;22.60;1.00;;;;;;2570832;56;1065;-88
2021/06/23 04:16:05;341123.00;1.14;588.60;5686.00;0.02;10.47;;;;;22.80;1.00;;;;;;2570817;56;1281;-88
2021/06/23 04:18:32;145473.00;0.48;252.01;0.00;0.00;0.62;;;;;22.70;1.00;;;;;;2570184;56;1099;-88
2021/06/23 04:20:59;175852.00;0.59;304.35;0.00;0.00;0.62;;;;;22.70;1.00;;;;;;2570746;56;1102;-88
2021/06/23 04:23:26;106280.00;0.35;184.41;0.00;0.00;0.62;;;;;23.00;1.00;;;;;;2570883;56;1902;-88
2021/06/23 04:25:52;317611.00;1.06;548.19;0.00;0.00;0.62;;;;;23.10;1.00;;;;;;2570897;56;1367;-87
2021/06/23 04:28:19;134718.00;0.45;233.46;0.00;0.00;0.62;;;;;23.30;1.00;;;;;;2570920;56;1062;-88
2021/06/23 04:30:47;97962.00;0.33;170.05;0.00;0.00;0.62;;;;;23.50;1.00;;;;;;2571191;56;1125;-88
2021/06/23 04:33:15;124926.00;0.42;216.58;0.00;0.00;0.62;;;;;23.70;1.00;;;;;;2571642;56;1134;-86
2021/06/23 04:35:42;235540.00;0.79;407.08;0.00;0.00;0.62;;;;;23.90;1.00;;;;;;2571582;56;1370;-86
2021/06/23 04:38:10;161473.00;0.54;279.58;0.00;0.00;0.62;;;;;23.80;1.00;;;;;;2571533;56;1168;-87
2021/06/23 04:40:37;181884.00;0.61;314.73;0.00;0.00;0.62;;;;;23.80;1.00;;;;;;2571572;56;1110;-86
2021/06/23 04:43:04;124455.00;0.41;215.77;0.00;0.00;0.62;;;;;24.00;1.00;;;;;;2571485;56;1898;-86
2021/06/23 04:45:31;74047.00;0.25;128.75;0.00;0.00;0.62;;;;;24.00;1.00;;;;;;2571570;56;1384;-87
2021/06/23 04:47:58;177006.00;0.59;306.33;0.00;0.00;0.62;;;;;24.10;1.00;;;;;;2571500;56;1081;-87
2021/06/23 04:50:27;196331.00;0.65;339.61;0.00;0.00;0.62;;;;;24.00;1.00;;;;;;2573618;55;1030;-87
2021/06/23 04:52:53;144291.00;0.48;249.97;0.00;0.00;0.62;;;;;24.30;1.00;;;;;;2571385;56;1038;-87
2021/06/23 04:55:20;311024.00;1.04;536.87;71670.00;0.24;124.65;;;;;24.30;1.00;;;;;;2573606;55;1235;-87
2021/06/23 04:57:47;219138.00;0.73;378.86;12395.00;0.04;22.10;;;;;24.30;1.00;;;;;;2573123;56;1101;-86
2021/06/23 05:00:15;153484.00;0.51;265.81;0.00;0.00;0.62;;;;;24.00;1.00;;;;;;2570875;56;1122;-86
2021/06/23 05:02:42;151168.00;0.50;261.82;0.00;0.00;0.62;;;;;23.70;1.00;;;;;;2573032;56;1965;-86
2021/06/23 05:05:10;36842.00;0.12;64.42;0.00;0.00;0.62;;;;;23.60;1.00;;;;;;2571001;56;1292;-86
2021/06/23 05:07:39;190949.00;0.64;330.34;0.00;0.00;0.62;;;;;23.70;1.00;;;;;;2570654;56;1085;-86
2021/06/23 05:10:06;152747.00;0.51;264.54;0.00;0.00;0.62;;;;;23.70;1.00;;;;;;2571156;56;1104;-86
2021/06/23 05:12:33;213890.00;0.71;369.83;0.00;0.00;0.62;;;;;23.90;1.00;;;;;;2570785;56;1151;-86
2021/06/23 05:15:00;272132.00;0.91;470.01;0.00;0.00;0.62;;;;;24.20;1.00;;;;;;2572928;56;1275;-86
2021/06/23 05:17:28;251389.00;0.84;434.34;0.00;0.00;0.62;;;;;24.50;1.00;;;;;;2570811;56;1152;-86
2021/06/23 05:19:55;75374.00;0.25;131.05;0.00;0.00;0.62;;;;;24.50;1.00;;;;;;2570473;56;1192;-86
2021/06/23 05:22:23;61386.00;0.20;106.87;0.00;0.00;0.62;;;;;24.70;1.00;;;;;;2571543;56;1027;-83
2021/06/23 05:24:51;63215.00;0.21;110.03;0.00;0.00;0.62;;;;;24.70;1.00;;;;;;2571377;56;2005;-86
2021/06/23 05:27:18;152708.00;0.51;264.47;47951.00;0.16;83.64;;;;;24.60;1.00;;;;;;2570505;56;1106;-86
2021/06/23 05:29:45;235659.00;0.79;407.28;0.00;0.00;0.62;;;;;24.30;1.00;;;;;;2570511;56;1128;-86
2021/06/23 05:32:12;28910.00;0.10;50.70;0.00;0.00;0.62;;;;;24.50;1.00;;;;;;2569666;56;1135;-85
2021/06/23 05:34:39;147371.00;0.49;255.28;0.00;0.00;0.62;;;;;24.50;1.00;;;;;;2569287;56;1364;-85
2021/06/23 05:37:06;119592.00;0.40;207.38;0.00;0.00;0.62;;;;;24.50;1.00;;;;;;2569434;56;1285;-85
2021/06/23 05:39:33;134525.00;0.45;233.13;0.00;0.00;0.62;;;;;24.80;1.00;;;;;;2571039;56;1572;-86
2021/06/23 05:42:01;176463.00;0.59;305.40;0.00;0.00;0.62;;;;;24.80;1.00;;;;;;2568867;56;1140;-85
2021/06/23 05:44:29;82413.00;0.27;143.21;0.00;0.00;0.62;;;;;25.10;1.00;;;;;;2569125;56;1979;-86
2021/06/23 05:46:56;204115.00;0.68;353.01;0.00;0.00;0.62;;;;;26.10;1.00;;;;;;2568448;56;1073;-86
2021/06/23 05:49:23;142281.00;0.47;246.50;0.00;0.00;0.62;;;;;27.30;1.00;;;;;;2568794;56;1147;-86
2021/06/23 05:51:50;125989.00;0.42;218.41;0.00;0.00;0.62;;;;;29.20;1.00;;;;;;2570829;56;1128;-86
2021/06/23 05:54:17;84589.00;0.28;146.96;0.00;0.00;0.62;;;;;29.90;1.00;;;;;;2568114;56;1256;-89
2021/06/23 05:56:44;83528.00;0.28;145.13;0.00;0.00;0.62;;;;;29.90;1.00;;;;;;2567979;56;1138;-87
2021/06/23 05:59:12;149580.00;0.50;259.08;0.00;0.00;0.62;;;;;29.70;1.00;;;;;;2568632;56;1135;-87
2021/06/23 06:01:39;115553.00;0.39;200.41;0.00;0.00;0.62;;;;;29.70;1.00;;;;;;2567856;56;1058;-87
2021/06/23 06:04:06;78787.00;0.26;136.94;0.00;0.00;0.62;;;;;29.40;1.00;;;;;;2572339;56;1958;-86
2021/06/23 06:06:32;212402.00;0.71;367.27;0.00;0.00;0.62;;;;;30.00;1.00;;;;;;2570516;56;1179;-88
2021/06/23 06:11:27;299148.00;1.00;516.46;0.00;0.00;0.62;;;;;31.60;1.00;;;;;;2562808;56;758;-85
2021/06/23 06:13:54;309230.00;1.03;533.79;0.00;0.00;0.62;;;;;32.80;1.00;;;;;;2564503;56;1135;-85
2021/06/23 06:16:33;404452.00;1.35;697.46;0.00;0.00;0.62;;;;;34.40;1.00;;;;;;2565310;56;1037;-85
2021/06/23 06:19:00;222958.00;0.74;385.43;0.00;0.00;0.62;;;;;34.40;1.00;;;;;;2565868;56;1322;-88
2021/06/23 06:21:27;80022.00;0.27;139.08;0.00;0.00;0.62;;;;;34.70;1.00;;;;;;2567314;56;1210;-87
2021/06/23 06:23:54;236519.00;0.79;408.76;0.00;0.00;0.62;;;;;35.50;1.00;;;;;;2571123;56;1893;-90
2021/06/23 06:26:21;98613.00;0.33;171.18;0.00;0.00;0.62;;;;;35.50;1.00;;;;;;2571274;56;1094;-88
2021/06/23 06:28:48;131457.00;0.44;227.84;0.00;0.00;0.62;;;;;36.10;1.00;;;;;;2571185;56;1443;-90
2021/06/23 06:31:15;66577.00;0.22;115.85;0.00;0.00;0.62;;;;;37.50;1.00;;;;;;2571116;56;1157;-88
2021/06/23 06:33:43;245701.00;0.82;424.56;59170.00;0.20;103.04;;;;;37.50;1.00;;;;;;2571000;56;1105;-88
2021/06/23 06:36:15;111853.00;0.37;194.03;0.00;0.00;0.62;;;;;37.90;1.00;;;;;;2571047;56;1124;-89
2021/06/23 06:38:42;160558.00;0.54;278.00;0.00;0.00;0.62;;;;;37.40;1.00;;;;;;2570832;56;1451;-88
2021/06/23 06:41:09;190389.00;0.63;329.38;0.00;0.00;0.62;;;;;37.00;1.00;;;;;;2568905;56;1168;-87
2021/06/23 06:43:36;140906.00;0.47;244.13;0.00;0.00;0.62;;;;;36.60;1.00;;;;;;2568973;56;1962;-87
2021/06/23 06:46:03;322936.00;1.08;557.34;0.00;0.00;0.62;;;;;36.70;1.00;;;;;;2569513;56;1077;-88
2021/06/23 06:48:30;188157.00;0.63;325.54;0.00;0.00;0.62;;;;;37.70;1.00;;;;;;2572299;55;1108;-87
2021/06/23 06:50:59;248885.00;0.83;430.03;0.00;0.00;0.62;;;;;37.30;1.00;;;;;;2572184;56;1431;-87
2021/06/23 06:53:26;152521.00;0.51;264.15;0.00;0.00;0.62;;;;;36.80;1.00;;;;;;2568924;56;1611;-88
2021/06/23 06:55:53;86474.00;0.29;150.22;0.00;0.00;0.62;;;;;37.80;1.00;;;;;;2571118;56;1054;-88
2021/06/23 06:58:22;366452.00;1.22;632.14;63076.00;0.21;109.79;;;;;38.70;1.00;;;;;;2567693;56;1088;-86
2021/06/23 07:00:49;39434.00;0.13;68.91;0.00;0.00;0.62;;;;;38.50;1.00;;;;;;2565425;56;1326;-86
2021/06/23 07:03:16;81871.00;0.27;142.27;0.00;0.00;0.62;;;;;38.30;1.00;;;;;;2566835;56;1139;-87
2021/06/23 07:05:43;351429.00;1.17;606.32;0.00;0.00;0.62;;;;;37.20;1.00;;;;;;2563186;56;1203;-87
2021/06/23 07:08:11;212969.00;0.71;368.24;0.00;0.00;0.62;;;;;35.40;1.00;;;;;;2564956;56;1231;-87
2021/06/23 07:10:38;420518.00;1.40;725.08;0.00;0.00;0.62;;;;;33.60;1.00;;;;;;2565749;56;1845;-87
2021/06/23 07:13:05;243626.00;0.81;420.99;0.00;0.00;0.62;;;;;32.50;1.00;;;;;;2567325;56;1156;-87
2021/06/23 07:15:32;258669.00;0.86;446.86;19881.00;0.07;35.06;;;;;33.30;1.00;;;;;;2561080;56;1010;-88
2021/06/23 07:18:01;406578.00;1.36;701.11;41496.00;0.14;72.48;;;;;34.80;1.00;;;;;;2550377;56;1707;-88
2021/06/23 07:20:28;54372.00;0.18;94.75;0.00;0.00;0.62;;;;;35.70;1.00;;;;;;2550183;56;1313;-89
2021/06/23 07:22:55;110268.00;0.37;191.29;0.00;0.00;0.62;;;;;35.90;1.00;;;;;;2548589;56;1653;-88
2021/06/23 07:25:25;59270.00;0.20;103.21;0.00;0.00;0.62;;;;;37.00;1.00;;;;;;2549432;56;1906;-88
2021/06/23 07:27:52;145151.00;0.48;251.45;0.00;0.00;0.62;;;;;37.00;1.00;;;;;;2539574;56;1185;-88
2021/06/23 07:30:20;158575.00;0.53;274.58;0.00;0.00;0.62;;;;;37.10;1.00;;;;;;2535810;56;1369;-88
2021/06/23 07:32:50;132172.00;0.44;229.07;0.00;0.00;0.62;;;;;37.60;1.00;;;;;;2537039;56;1103;-88
2021/06/23 07:38:07;0.00;0.00;0.62;0.00;0.00;0.62;;;;;39.10;1.00;;;;;;2553110;56;1037;-89
2021/06/23 07:43:20;0.00;0.00;0.62;0.00;0.00;0.62;;;;;37.40;1.00;;;;;;2534780;56;956;-89
2021/06/23 07:45:50;163369.00;0.54;282.84;29168.00;0.10;51.14;;;;;37.30;1.00;;;;;;2536608;56;1965;-89
2021/06/23 07:48:17;31836.00;0.11;55.76;0.00;0.00;0.62;;;;;37.50;1.00;;;;;;2538295;56;1191;-89
2021/06/23 07:50:50;92030.00;0.31;159.81;47322.00;0.16;82.55;;;;;37.70;1.00;;;;;;2541523;56;1452;-89
2021/06/23 07:53:23;58861.00;0.20;102.51;0.00;0.00;0.62;;;;;37.50;1.00;;;;;;2541207;56;1101;-89
2021/06/23 07:55:56;0.00;0.00;0.62;0.00;0.00;0.62;;;;;37.40;1.00;;;;;;2539179;56;1075;-88
2021/06/23 08:09:58;0.00;0.00;0.62;0.00;0.00;0.62;;;;;37.80;1.00;;;;;;2519566;56;1401;-90
2021/06/23 08:12:29;0.00;0.00;0.62;0.00;0.00;0.62;;;;;37.80;1.00;;;;;;2519256;57;1080;-89
2021/06/23 08:14:56;53024.00;0.18;92.42;0.00;0.00;0.62;;;;;37.70;1.00;;;;;;2518474;57;1159;-89
2021/06/23 08:17:23;0.00;0.00;0.62;0.00;0.00;0.62;;;;;37.30;1.00;;;;;;2499345;56;1119594;-89
2021/06/23 08:19:52;29020.00;0.10;50.89;0.00;0.00;0.62;;;;;38.00;1.00;;;;;;2521864;56;1376;-89
2021/06/23 08:22:19;69340.00;0.23;120.62;0.00;0.00;0.62;;;;;38.00;1.00;;;;;;2535654;56;1169;-90
2021/06/23 08:24:46;104060.00;0.35;180.58;0.00;0.00;0.62;;;;;37.70;1.00;;;;;;2535195;56;1921;-89
2021/06/23 08:27:13;0.00;0.00;0.62;0.00;0.00;0.62;;;;;37.20;1.00;;;;;;2532794;56;1167;-89
2021/06/23 08:29:41;123394.00;0.41;213.94;0.00;0.00;0.62;;;;;37.00;1.00;;;;;;2536212;56;1252;-89
2021/06/23 08:32:09;106870.00;0.36;185.43;0.00;0.00;0.62;;;;;36.90;1.00;;;;;;2543290;56;1105;-89
2021/06/23 08:34:36;88537.00;0.30;153.78;0.00;0.00;0.62;;;;;37.00;1.00;;;;;;2557390;56;1102;-90
2021/06/23 08:37:03;70096.00;0.23;121.93;0.00;0.00;0.62;;;;;37.20;1.00;;;;;;2557001;56;1624;-89
2021/06/23 08:39:31;117850.00;0.39;204.37;0.00;0.00;0.62;;;;;37.30;1.00;;;;;;2554770;56;1260;-91
2021/06/23 08:41:58;169233.00;0.56;292.95;0.00;0.00;0.62;;;;;36.40;1.00;;;;;;2559030;56;1024;-90
2021/06/23 08:44:25;184776.00;0.62;319.71;62496.00;0.21;108.79;;;;;36.30;1.00;;;;;;2572666;55;1899;-91
2021/06/23 08:46:53;212196.00;0.71;366.91;0.00;0.00;0.62;;;;;36.10;1.00;;;;;;2573065;55;1622;-90
2021/06/23 08:49:23;152003.00;0.51;263.26;0.00;0.00;0.62;;;;;36.10;1.00;;;;;;2572239;55;1592;-89
2021/06/23 08:51:50;110979.00;0.37;192.52;0.00;0.00;0.62;;;;;35.70;1.00;;;;;;2573246;56;1653;-91
2021/06/23 08:54:17;113780.00;0.38;197.35;0.00;0.00;0.62;;;;;36.10;1.00;;;;;;2572612;56;1533;-90
2021/06/23 08:56:44;119750.00;0.40;207.65;0.00;0.00;0.62;;;;;35.90;1.00;;;;;;2571961;56;1541;-90
2021/06/23 08:59:11;143431.00;0.48;248.49;0.00;0.00;0.62;;;;;35.70;1.00;;;;;;2572211;56;1720;-89
2021/06/23 09:01:38;102212.00;0.34;177.39;0.00;0.00;0.62;;;;;36.00;1.00;;;;;;2572089;56;1624;-89
2021/06/23 09:04:10;41898.00;0.14;73.17;0.00;0.00;0.62;;;;;35.20;1.00;;;;;;2569305;56;1947;-89
2021/06/23 09:06:45;298545.00;1.00;515.42;32011.00;0.11;56.06;;;;;34.70;1.00;;;;;;2561522;55;1097;-90
2021/06/23 09:09:24;158249.00;0.53;274.02;0.00;0.00;0.62;;;;;34.80;1.00;;;;;;2561176;55;1374;-91
2021/06/23 09:11:53;6061.00;0.02;11.12;0.00;0.00;0.62;;;;;34.40;1.00;;;;;;2562676;55;1139;-90
2021/06/23 09:14:21;230.00;0.00;1.02;0.00;0.00;0.62;;;;;33.50;1.00;;;;;;2549043;55;1398;-91
2021/06/23 09:17:03;132737.00;0.44;230.05;0.00;0.00;0.62;;;;;33.00;1.00;;;;;;2560467;55;1067;-90
2021/06/23 09:19:33;51811.00;0.17;90.32;0.00;0.00;0.62;;;;;32.10;1.00;;;;;;2562402;55;1400;-90
2021/06/23 09:22:01;243714.00;0.81;421.14;0.00;0.00;0.62;;;;;32.10;1.00;;;;;;2559101;55;1034;-88
2021/06/23 09:24:35;272845.00;0.91;471.24;0.00;0.00;0.62;;;;;32.20;1.00;;;;;;2562603;56;1957;-87
2021/06/23 09:27:19;80715.00;0.27;140.27;0.00;0.00;0.62;;;;;31.20;1.00;;;;;;2565936;56;1113;-87
2021/06/23 09:29:46;129824.00;0.43;225.03;0.00;0.00;0.62;;;;;31.20;1.00;;;;;;2572145;56;1402;-89
2021/06/23 09:32:14;385156.00;1.28;664.29;0.00;0.00;0.62;;;;;31.70;1.00;;;;;;2573098;55;1074;-91
2021/06/23 09:34:48;136718.00;0.46;236.91;0.00;0.00;0.62;;;;;31.70;1.00;;;;;;2568680;56;1224;-91
2021/06/23 09:37:27;0.00;0.00;0.62;0.00;0.00;0.62;;;;;31.60;1.00;;;;;;2573375;55;1054;-88
2021/06/23 09:40:15;41530.00;0.14;72.54;0.00;0.00;0.62;;;;;31.40;1.00;;;;;;2571269;56;1372;-91
2021/06/23 09:42:48;6622.00;0.02;12.10;0.00;0.00;0.62;;;;;31.20;1.00;;;;;;2562462;56;1695;-90
2021/06/23 09:45:29;0.00;0.00;0.62;0.00;0.00;0.62;;;;;31.20;1.00;;;;;;2562300;56;1952;-90
2021/06/23 09:48:03;60551.00;0.20;105.43;0.00;0.00;0.62;;;;;30.30;1.00;;;;;;2560201;56;1172;-89
2021/06/23 09:50:33;38562.00;0.13;67.40;0.00;0.00;0.62;;;;;29.50;1.00;;;;;;2553886;56;1322;-91
2021/06/23 09:53:04;11042.00;0.04;19.75;0.00;0.00;0.62;;;;;29.10;1.00;;;;;;2559993;56;1125;-90
2021/06/23 09:55:35;48599.00;0.16;84.76;0.00;0.00;0.62;;;;;29.00;1.00;;;;;;2558604;56;1070;-89
2021/06/23 09:58:11;18734.00;0.06;33.08;0.00;0.00;0.62;;;;;28.90;1.00;;;;;;2552142;56;1089;-88
2021/06/23 10:00:58;19783.00;0.07;34.89;0.00;0.00;0.62;;;;;29.30;1.00;;;;;;2546290;56;1319;-90
2021/06/23 10:03:25;0.00;0.00;0.62;0.00;0.00;0.62;;;;;29.10;1.00;;;;;;2552438;56;1058;-87
2021/06/23 10:05:55;30089.00;0.10;52.74;0.00;0.00;0.62;;;;;28.60;1.00;;;;;;2550320;56;1911;-93
2021/06/23 10:08:24;17422.00;0.06;30.81;0.00;0.00;0.62;;;;;28.60;1.00;;;;;;2552403;56;919;-90
2021/06/23 10:10:52;43038.00;0.14;75.14;0.00;0.00;0.62;;;;;29.10;1.00;;;;;;2552484;56;1205;-91
2021/06/23 10:13:22;171904.00;0.57;297.55;50781.00;0.17;88.54;;;;;29.50;1.00;;;;;;2542351;56;927;-92
2021/06/23 10:15:50;158682.00;0.53;274.77;0.00;0.00;0.62;;;;;29.80;1.00;;;;;;2541869;56;1209;-89
2021/06/23 10:18:20;135160.00;0.45;234.23;0.00;0.00;0.62;;;;;29.90;1.00;;;;;;2551562;56;1125;-89
2021/06/23 10:20:48;24214.00;0.08;42.57;0.00;0.00;0.62;;;;;29.70;1.00;;;;;;2557807;56;1380;-89
2021/06/23 10:23:18;146631.00;0.49;254.00;0.00;0.00;0.62;;;;;29.50;1.00;;;;;;2559987;56;1082;-90
2021/06/23 10:25:45;0.00;0.00;0.62;0.00;0.00;0.62;;;;;29.20;1.00;;;;;;2562674;56;1910;-88
2021/06/23 10:28:13;0.00;0.00;0.62;0.00;0.00;0.62;;;;;28.80;1.00;;;;;;2562261;56;1073;-88
2021/06/23 10:30:42;29110.00;0.10;51.04;0.00;0.00;0.62;;;;;28.60;1.00;;;;;;2551494;55;1343;-88